Star Mariella — V7KK3 — position and weather

sailwx.info

Track history (hours):
 
Tides and Currents Weather Stations Pressure Air Temp Water Temp Dewpoint Dewpoint Depression Visibility Wind Speed Wind Dir Waves Ship Positions

Star Mariella

Last reported at 2015-Mar-28 17:09 UTC. Time now 2015-Mar-28 18:52 UTC.
Position N 24°07' E 120°06'.

Length 229 m; draft 8.4 m.

Type: Ship. MMSI: 538002632.

Date/timePositionNaut miles runAvg speedWind from/ knotsBaromVisibWave heightAir tempDewpointWater temp
2015-Mar-28 17:09N 24°07' E 120°06'0 0.1
2015-Mar-28 16:15N 24°07' E 120°06'0 0.1
2015-Mar-28 15:21N 24°07' E 120°06'0 0.1
2015-Mar-28 14:33N 24°07' E 120°06'0 0.0
2015-Mar-28 13:09N 24°07' E 120°06'0 0.1
2015-Mar-28 12:33N 24°07' E 120°06'0 0.0
2015-Mar-28 08:03N 24°07' E 120°06'  
2015-Mar-19 15:12N 22°50' E 119°53'810.2
2015-Mar-19 14:28N 22°43' E 119°53'1011.0
2015-Mar-19 13:33N 22°33' E 119°51'1111.0
2015-Mar-19 12:31N 22°26' E 119°42'3210.4
2015-Mar-19 09:25N 21°53' E 119°38'8 9.6
2015-Mar-19 08:33N 21°46' E 119°36'1110.9
2015-Mar-19 07:33N 21°35' E 119°34'1110.8
2015-Mar-19 06:32N 21°24' E 119°34'10610.4
2015-Mar-18 20:20N 19°38' E 119°33'3311.1
2015-Mar-18 17:24N 19°05' E 119°32'  
Track history (hours):
 
Tides and Currents Weather Stations Pressure Air Temp Water Temp Dewpoint Dewpoint Depression Visibility Wind Speed Wind Dir Waves Ship Positions

Star Mariella

Last reported at 2015-Mar-28 17:09 UTC. Time now 2015-Mar-28 18:52 UTC.
Position N 24°07' E 120°06'.

Length 229 m; draft 8.4 m.

Type: Ship. MMSI: 538002632.

Date/timePositionNaut miles runAvg speedWind from/ knotsBaromVisibWave heightAir tempDewpointWater temp
2015-Mar-28 17:09N 24°07' E 120°06'0 0.1
2015-Mar-28 16:15N 24°07' E 120°06'0 0.1
2015-Mar-28 15:21N 24°07' E 120°06'0 0.1
2015-Mar-28 14:33N 24°07' E 120°06'0 0.0
2015-Mar-28 13:09N 24°07' E 120°06'0 0.1
2015-Mar-28 12:33N 24°07' E 120°06'0 0.0
2015-Mar-28 08:03N 24°07' E 120°06'  
2015-Mar-19 15:12N 22°50' E 119°53'810.2
2015-Mar-19 14:28N 22°43' E 119°53'1011.0
2015-Mar-19 13:33N 22°33' E 119°51'1111.0
2015-Mar-19 12:31N 22°26' E 119°42'3210.4
2015-Mar-19 09:25N 21°53' E 119°38'8 9.6
2015-Mar-19 08:33N 21°46' E 119°36'1110.9
2015-Mar-19 07:33N 21°35' E 119°34'1110.8
2015-Mar-19 06:32N 21°24' E 119°34'10610.4
2015-Mar-18 20:20N 19°38' E 119°33'3311.1
2015-Mar-18 17:24N 19°05' E 119°32'  

Dump ship's entire track history